Bangkok, Thaïlande

04:03 ICT le 05 septembre 2015 (GMT +0700)
Keerapat International School | | Change Station
CLOSE
Current Station
Stations météorologiques personnelles
Location: Bangkok,
Altitude: 20 ft
Stations météo à proximité

Alt. 20 ft 13.85 °N, 100.63 °E | Updated 30 seconds ago

Mostly Cloudy
Nuageux
80.1 ° F
Paraît 85 ° F
N
0.2
Vent Variable Vent de ONO
Gusts 2.5 mph

Aujourd'hui
Haut(e) -- | Bas -- ° F
--% Risque de précip.
Hier
Haut(e) -- | Bas -- ° F
Precip. -- pouce
6:06 AM 6:26 PM
Lune gibbeuse décroissante, 56% visible
Pression 29.86 pouce
Visibilité 6.2 Miles terrestres
Nuages Peu 2000 ft
Nuages épars 12000 ft
Nuageux 30000 ft
indice de chaleur 85 ° F
Point de rosée 74 ° F
Humidité 83%
Précipitations 0.00 pouce
Profondeur de la couche neigeuse Non disponible.
UV 0.0 sur 12
Pollen Non disponible.
Qualité de l'air Non disponible.
Flu Activity Non disponible.
METAR VTBD 042030Z 25006KT 9999 FEW020 SCT120 BKN300 27/24 Q1011 NOSIG
Pression 29.86 pouce
Visibilité 6.2 Miles terrestres
Nuages Peu 2000 ft
Nuages épars 12000 ft
Nuageux 30000 ft
indice de chaleur 85 ° F
Point de rosée 74 ° F
Humidité 83%
Précipitations 0.00 pouce
Profondeur de la couche neigeuse Non disponible.
UV 0.0 sur 12
Pollen Non disponible.
Qualité de l'air Non disponible.
Flu Activity Non disponible.
METAR VTBD 042030Z 25006KT 9999 FEW020 SCT120 BKN300 27/24 Q1011 NOSIG

10-Day Weather Forecast

×

Almanac

Astronomie

Sep. 05, 2015 Lever Coucher
Temps réel
Crépuscule civil
Crépuscule nautique
Crépuscule astronomique
Lune
Durée de lumière visible
Longueur du jour
Tomorrow will be .
, % of the Moon is Illuminated

Extrêmes aujourd'hui

Country Highs Country Lows

Community

WunderPhotos

Upload Photos

1,852,290 Photos téléchargées !

WunderBlogs® & News

Nearby

Qualité de l'air

  Qualité de l'air Indice de la qualité de l'air Polluant
Not available.

Épaisseur de neige

Station Depth Altitude

Activité sismique

Ville Distance Mag. Time & Date
Minimum magnitude displayed is 2.5.

Températures des eaux côtières

Lieu Température

Stations

Stations météo à proximité

Emplacement de la station Température Refroidissement éolien Point de rosée Humidité Vent Precip. Alt. Mise à jour Type